createdAt,value
2019-02-26T00:02:02.707Z,31.73
2019-02-26T00:04:35.034Z,31.75
2019-02-26T00:07:06.073Z,29.20
2019-02-26T00:09:36.665Z,28.17
2019-02-26T00:12:07.265Z,29.37
2019-02-26T00:14:37.817Z,27.73
2019-02-26T00:17:10.615Z,27.20
2019-02-26T00:19:40.627Z,25.82
2019-02-26T00:22:12.039Z,25.82
2019-02-26T00:24:44.397Z,25.30
2019-02-26T00:27:15.868Z,28.10
2019-02-26T00:29:48.636Z,26.75
2019-02-26T00:32:18.786Z,26.33
2019-02-26T00:34:49.441Z,27.50
2019-02-26T00:37:22.014Z,26.90
2019-02-26T00:39:54.050Z,29.80
2019-02-26T00:42:26.408Z,27.40
2019-02-26T00:44:58.299Z,28.52
2019-02-26T00:47:31.812Z,30.23
2019-02-26T00:50:01.581Z,31.45
2019-02-26T00:52:32.658Z,29.23
2019-02-26T00:55:05.391Z,29.65
2019-02-26T00:57:38.806Z,28.27
2019-02-26T01:00:12.803Z,30.32
2019-02-26T01:02:43.494Z,28.60
2019-02-26T01:05:16.273Z,28.45
2019-02-26T01:07:49.479Z,28.45
2019-02-26T01:10:21.204Z,27.02
2019-02-26T01:12:51.740Z,28.57
2019-02-26T01:15:22.434Z,27.25
2019-02-26T01:17:55.000Z,28.02
2019-02-26T01:20:27.471Z,32.50
2019-02-26T01:22:57.561Z,34.67
2019-02-26T01:25:28.167Z,31.77
2019-02-26T01:28:00.430Z,29.60
2019-02-26T01:30:33.629Z,29.07
2019-02-26T01:33:05.567Z,28.25
2019-02-26T01:35:37.776Z,27.10
2019-02-26T01:38:08.029Z,28.92
2019-02-26T01:40:41.520Z,26.07
2019-02-26T01:43:10.832Z,27.37
2019-02-26T01:45:41.459Z,27.90
2019-02-26T01:48:16.159Z,28.85
2019-02-26T01:50:44.282Z,27.85
2019-02-26T01:53:16.927Z,32.13
2019-02-26T01:55:48.383Z,27.58
2019-02-26T01:58:19.625Z,29.00
2019-02-26T02:00:50.226Z,26.15
2019-02-26T02:03:22.690Z,24.67
2019-02-26T02:05:54.788Z,26.70
2019-02-26T02:08:25.572Z,26.42
2019-02-26T02:10:58.916Z,28.40
2019-02-26T02:13:28.761Z,27.35
2019-02-26T02:16:02.137Z,27.00
2019-02-26T02:18:32.899Z,29.63
2019-02-26T02:21:03.485Z,29.70
2019-02-26T02:23:33.991Z,28.42
2019-02-26T02:26:06.618Z,30.45
2019-02-26T02:28:36.818Z,30.32
2019-02-26T02:31:07.434Z,28.10
2019-02-26T02:33:38.046Z,29.05
2019-02-26T02:36:09.725Z,29.25
2019-02-26T02:38:40.814Z,27.07
2019-02-26T02:41:11.429Z,27.90
2019-02-26T02:43:41.985Z,27.27
2019-02-26T02:46:12.562Z,29.18
2019-02-26T02:48:43.133Z,27.35
2019-02-26T02:51:14.011Z,29.05
2019-02-26T02:53:45.736Z,29.63
2019-02-26T02:56:17.975Z,27.50
2019-02-26T02:58:51.407Z,29.32
2019-02-26T03:01:22.970Z,29.07
2019-02-26T03:03:55.870Z,25.93
2019-02-26T03:06:28.091Z,28.05
2019-02-26T03:08:57.765Z,25.72
2019-02-26T03:11:28.332Z,27.40
2019-02-26T03:13:58.837Z,25.10
2019-02-26T03:16:29.432Z,24.43
2019-02-26T03:18:59.942Z,25.07
2019-02-26T03:21:30.752Z,25.50
2019-02-26T03:24:03.508Z,27.22
2019-02-26T03:26:33.587Z,27.95
2019-02-26T03:29:04.111Z,26.68
2019-02-26T03:31:39.698Z,28.40
2019-02-26T03:34:10.609Z,27.93
2019-02-26T03:36:40.828Z,28.38
2019-02-26T03:39:11.424Z,27.95
2019-02-26T03:41:43.258Z,31.68
2019-02-26T03:44:14.374Z,32.48
2019-02-26T03:46:44.918Z,31.87
2019-02-26T03:49:15.453Z,30.50
2019-02-26T03:51:46.018Z,30.37
2019-02-26T03:54:16.592Z,29.07
2019-02-26T03:56:47.200Z,28.05
2019-02-26T03:59:17.856Z,30.75
2019-02-26T04:01:48.387Z,29.70
2019-02-26T04:04:20.719Z,30.68
2019-02-26T04:06:51.220Z,29.90
2019-02-26T04:09:22.045Z,28.90
2019-02-26T04:11:53.411Z,28.23
2019-02-26T04:14:27.725Z,26.95
2019-02-26T04:16:58.668Z,27.07
2019-02-26T04:19:29.427Z,25.97
2019-02-26T04:22:28.352Z,26.20
2019-02-26T04:25:09.236Z,29.60
2019-02-26T04:28:52.451Z,28.87
2019-02-26T04:32:18.984Z,29.45
2019-02-26T04:35:21.029Z,31.23
2019-02-26T04:38:48.300Z,28.25
2019-02-26T04:42:08.437Z,32.70
2019-02-26T04:45:35.187Z,31.02
2019-02-26T04:48:05.737Z,34.48
2019-02-26T04:50:38.614Z,36.58
2019-02-26T04:53:10.944Z,37.60
2019-02-26T04:55:41.374Z,35.50
2019-02-26T04:58:15.580Z,35.30
2019-02-26T05:00:47.365Z,35.37
2019-02-26T05:03:20.074Z,33.40
2019-02-26T05:05:53.722Z,29.63
2019-02-26T05:08:22.305Z,30.70
2019-02-26T05:10:56.845Z,31.07
2019-02-26T05:13:27.484Z,31.97
2019-02-26T05:15:58.753Z,28.23
2019-02-26T05:18:31.947Z,27.75
2019-02-26T05:21:02.747Z,29.25
2019-02-26T05:23:33.735Z,30.67
2019-02-26T05:26:05.625Z,30.60
2019-02-26T05:28:37.899Z,31.60
2019-02-26T05:31:11.258Z,29.93
2019-02-26T05:33:41.022Z,34.78
2019-02-26T05:36:14.228Z,35.53
2019-02-26T05:38:44.073Z,34.00
2019-02-26T05:41:14.531Z,30.77
2019-02-26T05:43:49.445Z,36.05
2019-02-26T05:46:19.561Z,34.70
2019-02-26T05:48:51.184Z,31.60
2019-02-26T05:51:21.680Z,31.50
2019-02-26T05:53:52.182Z,32.08
2019-02-26T05:56:22.938Z,34.98
2019-02-26T05:58:53.373Z,34.05
2019-02-26T06:01:24.958Z,35.28
2019-02-26T06:03:56.181Z,32.97
2019-02-26T06:06:26.705Z,30.45
2019-02-26T06:08:58.012Z,29.17
2019-02-26T06:11:33.205Z,27.70
2019-02-26T06:14:06.612Z,28.83
2019-02-26T06:16:34.004Z,27.20
2019-02-26T06:19:08.323Z,27.77
2019-02-26T06:21:41.773Z,30.05
2019-02-26T06:24:10.769Z,31.65
2019-02-26T06:26:43.075Z,29.67
2019-02-26T06:29:13.517Z,29.72
2019-02-26T06:31:45.080Z,31.57
2019-02-26T06:34:17.773Z,32.85
2019-02-26T06:36:49.291Z,31.55
2019-02-26T06:39:24.221Z,31.27
2019-02-26T06:41:52.863Z,28.45
2019-02-26T06:44:23.415Z,31.35
2019-02-26T06:46:53.904Z,28.07
2019-02-26T06:49:24.585Z,30.23
2019-02-26T06:51:56.506Z,33.13
2019-02-26T06:54:28.937Z,30.37
2019-02-26T06:56:59.258Z,31.48
2019-02-26T06:59:34.907Z,32.93
2019-02-26T07:02:05.382Z,31.57
2019-02-26T07:04:35.913Z,30.95
2019-02-26T07:07:09.952Z,31.10
2019-02-26T07:09:39.610Z,30.43
2019-02-26T07:12:11.055Z,28.60
2019-02-26T07:14:41.589Z,29.72
2019-02-26T07:17:12.040Z,30.30
2019-02-26T07:19:42.627Z,24.95
2019-02-26T07:22:13.522Z,29.20
2019-02-26T07:24:48.278Z,29.00
2019-02-26T07:27:17.692Z,32.60
2019-02-26T07:29:52.268Z,33.43
2019-02-26T07:32:22.227Z,31.10
2019-02-26T07:34:52.789Z,32.25
2019-02-26T07:37:23.242Z,32.35
2019-02-26T07:39:53.715Z,36.48
2019-02-26T07:42:24.236Z,35.75
2019-02-26T07:44:54.753Z,35.58
2019-02-26T07:47:26.522Z,38.58
2019-02-26T07:50:00.819Z,37.20
2019-02-26T07:52:31.256Z,35.85
2019-02-26T07:55:03.751Z,36.20
2019-02-26T07:57:34.243Z,35.45
2019-02-26T08:00:05.828Z,35.08
2019-02-26T08:02:37.291Z,37.55
2019-02-26T08:05:08.889Z,37.60
2019-02-26T08:07:39.435Z,34.15
2019-02-26T08:10:14.990Z,35.27
2019-02-26T08:12:46.676Z,36.58
2019-02-26T08:15:17.799Z,35.40
2019-02-26T08:17:50.508Z,37.50
2019-02-26T08:20:20.421Z,36.05
2019-02-26T08:22:51.605Z,37.65
2019-02-26T08:25:23.203Z,37.40
2019-02-26T08:27:55.945Z,37.38
2019-02-26T08:30:26.171Z,36.38
2019-02-26T08:32:58.912Z,39.55
2019-02-26T08:35:28.911Z,35.20
2019-02-26T08:37:59.517Z,36.33
2019-02-26T08:40:30.047Z,36.95
2019-02-26T08:43:00.563Z,34.70
2019-02-26T08:45:31.303Z,36.20
2019-02-26T08:48:01.844Z,35.83
2019-02-26T08:50:33.469Z,35.95
2019-02-26T08:53:04.599Z,35.57
2019-02-26T08:55:35.064Z,34.10
2019-02-26T08:58:07.689Z,35.20
2019-02-26T09:00:39.005Z,34.33
2019-02-26T09:03:10.851Z,33.45
2019-02-26T09:05:41.722Z,34.13
2019-02-26T09:08:14.015Z,34.73
2019-02-26T09:10:46.319Z,34.18
2019-02-26T09:13:18.580Z,34.38
2019-02-26T09:15:48.899Z,32.88
2019-02-26T09:18:20.511Z,32.23
2019-02-26T09:20:51.544Z,30.77
2019-02-26T09:23:23.540Z,33.23
2019-02-26T09:25:56.995Z,32.60
2019-02-26T09:28:27.166Z,32.10
2019-02-26T09:31:01.350Z,32.67
2019-02-26T09:33:33.002Z,32.70
2019-02-26T09:36:03.095Z,32.95
2019-02-26T09:38:33.589Z,33.92
2019-02-26T09:41:04.136Z,33.98
2019-02-26T09:43:36.186Z,31.20
2019-02-26T09:46:09.195Z,32.50
2019-02-26T09:48:41.100Z,30.90
2019-02-26T09:51:12.279Z,30.52
2019-02-26T09:53:43.394Z,30.65
2019-02-26T09:56:13.919Z,32.08
2019-02-26T09:58:46.500Z,31.20
2019-02-26T10:01:18.042Z,31.85
2019-02-26T10:03:48.642Z,29.65
2019-02-26T10:06:21.633Z,30.88
2019-02-26T10:08:53.306Z,29.55
2019-02-26T10:11:26.114Z,31.43
2019-02-26T10:13:56.929Z,30.97
2019-02-26T10:16:28.243Z,29.18
2019-02-26T10:18:59.691Z,30.08
2019-02-26T10:21:33.077Z,29.70
2019-02-26T10:24:04.506Z,29.50
2019-02-26T10:26:36.634Z,30.37
2019-02-26T10:29:07.990Z,29.95
2019-02-26T10:31:41.085Z,27.90
2019-02-26T10:34:13.326Z,25.15
2019-02-26T10:36:46.278Z,26.35
2019-02-26T10:39:15.641Z,25.57
2019-02-26T10:41:47.250Z,26.25
2019-02-26T10:44:17.754Z,26.73
2019-02-26T10:46:48.222Z,24.60
2019-02-26T10:49:18.731Z,28.07
2019-02-26T10:51:49.173Z,28.67
2019-02-26T10:54:19.663Z,29.82
2019-02-26T10:56:50.156Z,29.10
2019-02-26T10:59:20.629Z,25.57
2019-02-26T11:01:54.730Z,25.10
2019-02-26T11:04:23.400Z,25.32
2019-02-26T11:06:53.862Z,25.30
2019-02-26T11:09:28.676Z,23.80
2019-02-26T11:11:58.387Z,24.90
2019-02-26T11:14:31.200Z,26.90
2019-02-26T11:17:01.229Z,26.77
2019-02-26T11:19:33.836Z,24.15
2019-02-26T11:22:04.347Z,23.45
2019-02-26T11:24:36.208Z,24.10
2019-02-26T11:27:06.872Z,22.15
2019-02-26T11:29:38.772Z,22.25
2019-02-26T11:32:10.281Z,22.27
2019-02-26T11:34:41.751Z,22.45
2019-02-26T11:37:12.202Z,23.42
2019-02-26T11:39:42.724Z,22.50
2019-02-26T11:42:13.240Z,20.20
2019-02-26T11:44:43.712Z,21.40
2019-02-26T11:47:16.089Z,23.40
2019-02-26T11:49:46.787Z,23.83
2019-02-26T11:52:19.651Z,25.88
2019-02-26T11:54:49.572Z,23.62
2019-02-26T11:57:20.061Z,22.20
2019-02-26T11:59:50.552Z,23.00
2019-02-26T12:02:26.691Z,20.75
2019-02-26T12:04:54.900Z,21.45
2019-02-26T12:07:27.286Z,23.35
2019-02-26T12:09:58.419Z,22.10
2019-02-26T12:12:31.142Z,24.40
2019-02-26T12:15:04.087Z,23.67
2019-02-26T12:17:35.947Z,23.70
2019-02-26T12:20:09.419Z,24.67
2019-02-26T12:22:41.183Z,24.07
2019-02-26T12:25:12.909Z,25.25
2019-02-26T12:27:45.524Z,24.47
2019-02-26T12:30:20.689Z,22.75
2019-02-26T12:32:53.046Z,21.60
2019-02-26T12:35:23.524Z,22.13
2019-02-26T12:37:56.666Z,22.48
2019-02-26T12:40:26.352Z,21.70
2019-02-26T12:42:56.893Z,22.00
2019-02-26T12:45:28.549Z,21.93
2019-02-26T12:47:59.832Z,20.33
2019-02-26T12:50:32.749Z,20.65
2019-02-26T12:53:02.410Z,20.62
2019-02-26T12:55:35.856Z,18.67
2019-02-26T12:58:05.377Z,19.15
2019-02-26T13:00:38.353Z,19.17
2019-02-26T13:03:09.320Z,21.45
2019-02-26T13:05:42.196Z,21.40
2019-02-26T13:08:16.373Z,21.62
2019-02-26T13:10:47.392Z,20.30
2019-02-26T13:13:17.050Z,19.50
2019-02-26T13:15:47.472Z,19.87
2019-02-26T13:18:17.922Z,19.55
2019-02-26T13:20:52.162Z,18.70
2019-02-26T13:23:21.863Z,19.85
2019-02-26T13:25:52.511Z,21.30
2019-02-26T13:28:29.380Z,21.20
2019-02-26T13:30:58.055Z,20.40
2019-02-26T13:33:33.909Z,19.67
2019-02-26T13:36:04.006Z,19.62
2019-02-26T13:38:37.579Z,19.50
2019-02-26T13:41:25.196Z,20.77
2019-02-26T13:43:36.401Z,21.65
2019-02-26T13:46:06.932Z,19.92
2019-02-26T13:48:37.435Z,22.00
2019-02-26T13:51:07.979Z,22.50
2019-02-26T13:53:38.482Z,21.30
2019-02-26T13:56:08.994Z,21.57
2019-02-26T13:58:39.511Z,22.15
2019-02-26T14:01:09.988Z,20.20
2019-02-26T14:03:40.519Z,19.90
2019-02-26T14:06:11.074Z,19.53
2019-02-26T14:08:41.571Z,19.32
2019-02-26T14:11:12.061Z,19.87
2019-02-26T14:13:42.565Z,19.37
2019-02-26T14:16:13.039Z,20.85
2019-02-26T14:18:43.546Z,21.25
2019-02-26T14:21:14.369Z,20.52
2019-02-26T14:23:46.012Z,20.37
2019-02-26T14:26:16.500Z,20.52
2019-02-26T14:28:47.054Z,21.25
2019-02-26T14:31:17.528Z,20.12
2019-02-26T14:33:47.956Z,20.70
2019-02-26T14:36:18.491Z,21.40
2019-02-26T14:38:48.873Z,22.00
2019-02-26T14:41:19.393Z,21.55
2019-02-26T14:43:49.896Z,22.32
2019-02-26T14:46:20.332Z,21.80
2019-02-26T14:48:50.833Z,21.35
2019-02-26T14:51:21.668Z,19.87
2019-02-26T14:53:52.494Z,21.23
2019-02-26T14:56:25.021Z,22.95
2019-02-26T14:58:55.349Z,22.30
2019-02-26T15:01:25.852Z,20.82
2019-02-26T15:03:56.462Z,21.40
2019-02-26T15:06:26.994Z,21.00
2019-02-26T15:08:57.427Z,21.25
2019-02-26T15:11:27.911Z,20.75
2019-02-26T15:13:58.454Z,20.77
2019-02-26T15:16:28.921Z,21.05
2019-02-26T15:18:59.344Z,20.88
2019-02-26T15:21:29.873Z,20.83
2019-02-26T15:24:00.392Z,20.82
2019-02-26T15:26:30.887Z,21.48
2019-02-26T15:29:01.716Z,21.87
2019-02-26T15:31:32.240Z,19.02
2019-02-26T15:34:02.721Z,18.67
2019-02-26T15:36:33.489Z,16.25
2019-02-26T15:39:05.260Z,16.73
2019-02-26T15:41:35.764Z,17.82
2019-02-26T15:44:06.295Z,18.50
2019-02-26T15:46:36.794Z,19.65
2019-02-26T15:49:07.714Z,18.30
2019-02-26T15:51:38.768Z,17.93
2019-02-26T15:54:09.234Z,16.93
2019-02-26T15:56:39.742Z,17.32
2019-02-26T15:59:10.308Z,18.67
2019-02-26T16:01:40.815Z,18.02
2019-02-26T16:04:11.291Z,18.48
2019-02-26T16:06:41.797Z,20.30
2019-02-26T16:09:14.619Z,20.95
2019-02-26T16:11:44.672Z,19.35
2019-02-26T16:14:15.291Z,19.67
2019-02-26T16:16:45.793Z,20.15
2019-02-26T16:19:16.218Z,20.92
2019-02-26T16:21:46.754Z,21.27
2019-02-26T16:24:17.309Z,19.70
2019-02-26T16:26:48.024Z,20.60
2019-02-26T16:29:18.552Z,20.77
2019-02-26T16:31:49.279Z,20.52
2019-02-26T16:34:38.967Z,21.12
2019-02-26T16:37:09.545Z,22.50
2019-02-26T16:39:40.326Z,23.73
2019-02-26T16:42:11.744Z,20.45
2019-02-26T16:44:42.826Z,21.60
2019-02-26T16:47:14.637Z,20.55
2019-02-26T16:49:45.449Z,21.57
2019-02-26T16:52:15.956Z,21.70
2019-02-26T16:54:46.498Z,21.40
2019-02-26T16:57:17.048Z,20.82
2019-02-26T16:59:47.561Z,20.62
2019-02-26T17:02:18.841Z,21.17
2019-02-26T17:04:49.434Z,20.02
2019-02-26T17:07:19.963Z,19.85
2019-02-26T17:09:50.515Z,18.57
2019-02-26T17:12:21.144Z,20.20
2019-02-26T17:14:51.714Z,20.55
2019-02-26T17:17:22.286Z,22.20
2019-02-26T17:19:52.931Z,21.87
2019-02-26T17:22:23.581Z,20.68
2019-02-26T17:24:54.279Z,20.05
2019-02-26T17:27:24.835Z,19.73
2019-02-26T17:29:55.276Z,19.87
2019-02-26T17:32:25.890Z,19.60
2019-02-26T17:34:56.566Z,20.90
2019-02-26T17:37:27.096Z,20.68
2019-02-26T17:39:57.658Z,19.40
2019-02-26T17:42:28.197Z,19.70
2019-02-26T17:44:58.750Z,19.82
2019-02-26T17:47:29.354Z,20.30
2019-02-26T17:49:59.940Z,20.37
2019-02-26T17:52:30.560Z,19.27
2019-02-26T17:55:01.430Z,21.02
2019-02-26T17:57:34.549Z,20.48
2019-02-26T18:00:05.415Z,20.35
2019-02-26T18:02:35.993Z,22.37
2019-02-26T18:05:06.981Z,20.45
2019-02-26T18:07:38.571Z,22.35
2019-02-26T18:10:13.527Z,22.07
2019-02-26T18:12:44.399Z,22.73
2019-02-26T18:15:17.569Z,22.85
2019-02-26T18:17:57.387Z,23.60
2019-02-26T18:20:28.751Z,23.65
2019-02-26T18:23:00.227Z,22.83
2019-02-26T18:25:31.591Z,20.45
2019-02-26T18:28:02.102Z,22.07
2019-02-26T18:30:32.609Z,19.90
2019-02-26T18:33:03.140Z,20.00
2019-02-26T18:35:33.537Z,22.05
2019-02-26T18:38:04.130Z,21.35
2019-02-26T18:40:34.694Z,19.90
2019-02-26T18:43:05.498Z,21.48
2019-02-26T18:45:36.082Z,19.77
2019-02-26T18:48:06.681Z,21.50
2019-02-26T18:50:39.052Z,21.68
2019-02-26T18:53:11.745Z,21.23
2019-02-26T18:55:41.736Z,20.70
2019-02-26T18:58:13.722Z,22.15
2019-02-26T19:00:44.555Z,22.05
2019-02-26T19:03:15.226Z,21.90
2019-02-26T19:05:45.778Z,22.30
2019-02-26T19:08:16.227Z,22.37
2019-02-26T19:10:46.746Z,20.82
2019-02-26T19:13:17.261Z,23.17
2019-02-26T19:15:48.473Z,22.37
2019-02-26T19:18:19.170Z,21.93
2019-02-26T19:20:49.731Z,22.62
2019-02-26T19:23:20.246Z,21.62
2019-02-26T19:25:50.876Z,20.27
2019-02-26T19:28:25.849Z,21.37
2019-02-26T19:30:54.055Z,20.92
2019-02-26T19:33:24.713Z,22.67
2019-02-26T19:35:55.192Z,21.15
2019-02-26T19:38:27.664Z,22.73
2019-02-26T19:41:00.014Z,20.72
2019-02-26T19:43:30.670Z,21.33
2019-02-26T19:46:02.271Z,23.60
2019-02-26T19:48:34.003Z,20.15
2019-02-26T19:51:04.722Z,21.00
2019-02-26T19:53:35.315Z,23.60
2019-02-26T19:56:05.981Z,22.60
2019-02-26T19:58:40.581Z,24.52
2019-02-26T20:01:09.230Z,24.85
2019-02-26T20:03:40.858Z,23.77
2019-02-26T20:06:11.400Z,23.35
2019-02-26T20:08:42.035Z,24.30
2019-02-26T20:11:12.594Z,23.22
2019-02-26T20:13:43.109Z,24.23
2019-02-26T20:16:14.058Z,23.50
2019-02-26T20:18:44.607Z,24.12
2019-02-26T20:21:18.825Z,22.75
2019-02-26T20:23:47.443Z,23.15
2019-02-26T20:26:18.090Z,25.35
2019-02-26T20:28:48.591Z,24.47
2019-02-26T20:31:21.937Z,25.37
2019-02-26T20:33:52.190Z,24.47
2019-02-26T20:36:22.734Z,23.60
2019-02-26T20:38:53.300Z,24.35
2019-02-26T20:41:23.895Z,18.07
2019-02-26T20:43:54.410Z,15.03
2019-02-26T20:46:25.674Z,14.73
2019-02-26T20:48:56.276Z,17.52
2019-02-26T20:51:27.627Z,18.55
2019-02-26T20:53:58.422Z,19.57
2019-02-26T20:56:30.972Z,21.95
2019-02-26T20:59:01.445Z,22.60
2019-02-26T21:01:32.524Z,22.90
2019-02-26T21:04:03.717Z,24.45
2019-02-26T21:06:34.324Z,21.97
2019-02-26T21:09:07.187Z,25.50
2019-02-26T21:11:38.407Z,22.93
2019-02-26T21:14:09.113Z,24.82
2019-02-26T21:16:39.872Z,25.12
2019-02-26T21:19:10.501Z,23.00
2019-02-26T21:21:41.042Z,20.75
2019-02-26T21:24:11.791Z,17.92
2019-02-26T21:26:42.294Z,18.03
2019-02-26T21:29:13.672Z,22.00
2019-02-26T21:31:44.305Z,23.10
2019-02-26T21:34:14.936Z,22.17
2019-02-26T21:36:45.518Z,25.40
2019-02-26T21:39:16.176Z,21.82
2019-02-26T21:41:46.782Z,20.60
2019-02-26T21:44:17.387Z,20.02
2019-02-26T21:46:47.951Z,21.23
2019-02-26T21:49:18.643Z,20.92
2019-02-26T21:51:49.504Z,23.05
2019-02-26T21:54:24.518Z,22.80
2019-02-26T21:56:54.571Z,24.02
2019-02-26T21:59:25.706Z,24.27
2019-02-26T22:01:56.697Z,24.63
2019-02-26T22:05:13.500Z,23.52
2019-02-26T22:07:52.105Z,22.32
2019-02-26T22:10:26.472Z,22.05
2019-02-26T22:16:36.601Z,22.10
2019-02-26T22:19:13.205Z,25.75
2019-02-26T22:21:52.748Z,24.32
2019-02-26T22:24:23.849Z,21.85
2019-02-26T22:26:59.351Z,21.57
2019-02-26T22:29:27.067Z,25.27
2019-02-26T22:32:02.551Z,22.70
2019-02-26T22:34:33.275Z,25.08
2019-02-26T22:37:07.032Z,21.52
2019-02-26T22:39:36.230Z,24.43
2019-02-26T22:42:08.125Z,25.27
2019-02-26T22:44:39.225Z,23.25
2019-02-26T22:47:09.879Z,23.47
2019-02-26T22:49:40.438Z,22.90
2019-02-26T22:52:11.047Z,20.48
2019-02-26T22:54:43.510Z,18.95
2019-02-26T22:57:13.971Z,20.85
2019-02-26T22:59:44.544Z,20.95
2019-02-26T23:02:15.275Z,22.65
2019-02-26T23:04:45.907Z,21.55
2019-02-26T23:07:16.538Z,22.00
2019-02-26T23:09:47.345Z,21.68
2019-02-26T23:12:19.688Z,19.52
2019-02-26T23:14:50.463Z,18.40
2019-02-26T23:17:24.662Z,16.30
2019-02-26T23:19:53.588Z,10.32
2019-02-26T23:22:24.215Z,10.40
2019-02-26T23:24:54.795Z,11.15
2019-02-26T23:27:26.246Z,9.73
2019-02-26T23:29:56.865Z,10.50
2019-02-26T23:32:28.540Z,11.38
2019-02-26T23:35:08.898Z,12.47
2019-02-26T23:37:39.565Z,14.68
2019-02-26T23:40:11.380Z,15.33
2019-02-26T23:42:41.980Z,15.83
2019-02-26T23:45:12.994Z,18.73
2019-02-26T23:47:44.155Z,18.20
2019-02-26T23:50:14.758Z,19.37
2019-02-26T23:52:45.370Z,20.48
2019-02-26T23:55:15.933Z,23.43
2019-02-26T23:57:46.565Z,22.32
